sensor_id;sensor_type;location;lat;lon;timestamp;pressure;altitude;pressure_sealevel;temperature;humidity
41830;BME280;38614;43.472;23.936;2023-01-19T00:02:24;98951.28;;;11.61;100.00
41830;BME280;38614;43.472;23.936;2023-01-19T00:05:13;98965.53;;;11.56;100.00
41830;BME280;38614;43.472;23.936;2023-01-19T00:08:01;98963.53;;;11.53;100.00
41830;BME280;38614;43.472;23.936;2023-01-19T00:11:01;98967.91;;;11.61;100.00
41830;BME280;38614;43.472;23.936;2023-01-19T00:13:49;98935.88;;;11.39;100.00
41830;BME280;38614;43.472;23.936;2023-01-19T00:16:38;98942.97;;;11.33;100.00
41830;BME280;38614;43.472;23.936;2023-01-19T00:19:26;98927.97;;;11.41;100.00
41830;BME280;38614;43.472;23.936;2023-01-19T00:22:14;98957.22;;;11.67;100.00
41830;BME280;38614;43.472;23.936;2023-01-19T00:25:02;98969.88;;;11.61;100.00
41830;BME280;38614;43.472;23.936;2023-01-19T00:27:50;98952.47;;;11.46;100.00
41830;BME280;38614;43.472;23.936;2023-01-19T00:30:38;98978.53;;;11.31;100.00
41830;BME280;38614;43.472;23.936;2023-01-19T00:33:26;98975.34;;;11.22;100.00
41830;BME280;38614;43.472;23.936;2023-01-19T00:36:14;98983.22;;;11.16;100.00
41830;BME280;38614;43.472;23.936;2023-01-19T00:39:03;98969.03;;;11.21;100.00
41830;BME280;38614;43.472;23.936;2023-01-19T00:41:50;98960.34;;;11.23;100.00
41830;BME280;38614;43.472;23.936;2023-01-19T00:44:56;98983.66;;;11.25;100.00
41830;BME280;38614;43.472;23.936;2023-01-19T00:47:45;98972.97;;;11.17;100.00
41830;BME280;38614;43.472;23.936;2023-01-19T00:50:33;98955.53;;;10.91;100.00
41830;BME280;38614;43.472;23.936;2023-01-19T00:53:21;98972.97;;;11.13;100.00
41830;BME280;38614;43.472;23.936;2023-01-19T00:56:09;98975.66;;;10.95;100.00
41830;BME280;38614;43.472;23.936;2023-01-19T00:58:57;98986.41;;;11.22;100.00
41830;BME280;38614;43.472;23.936;2023-01-19T01:01:44;98993.97;;;11.50;100.00
41830;BME280;38614;43.472;23.936;2023-01-19T01:04:35;98964.31;;;11.29;100.00
41830;BME280;38614;43.472;23.936;2023-01-19T01:07:23;98999.44;;;11.21;100.00
41830;BME280;38614;43.472;23.936;2023-01-19T01:10:15;98974.47;;;10.93;100.00
41830;BME280;38614;43.472;23.936;2023-01-19T01:13:03;98998.09;;;10.79;100.00
41830;BME280;38614;43.472;23.936;2023-01-19T01:16:10;98996.47;;;10.68;100.00
41830;BME280;38614;43.472;23.936;2023-01-19T01:19:00;98998.34;;;10.46;100.00
41830;BME280;38614;43.472;23.936;2023-01-19T01:21:48;99001.41;;;10.30;100.00
41830;BME280;38614;43.472;23.936;2023-01-19T01:24:37;98991.44;;;10.18;100.00
41830;BME280;38614;43.472;23.936;2023-01-19T01:27:27;99005.00;;;10.38;100.00
41830;BME280;38614;43.472;23.936;2023-01-19T01:30:15;98985.97;;;10.22;100.00
41830;BME280;38614;43.472;23.936;2023-01-19T01:33:03;99004.19;;;10.34;100.00
41830;BME280;38614;43.472;23.936;2023-01-19T01:35:51;99012.34;;;10.19;100.00
41830;BME280;38614;43.472;23.936;2023-01-19T01:38:40;99007.88;;;10.00;100.00
41830;BME280;38614;43.472;23.936;2023-01-19T01:41:28;98992.69;;;9.77;100.00
41830;BME280;38614;43.472;23.936;2023-01-19T01:44:51;99003.22;;;9.64;100.00
41830;BME280;38614;43.472;23.936;2023-01-19T01:47:44;99012.28;;;9.64;100.00
41830;BME280;38614;43.472;23.936;2023-01-19T01:50:36;98994.25;;;9.74;100.00
41830;BME280;38614;43.472;23.936;2023-01-19T01:53:25;98997.16;;;9.48;100.00
41830;BME280;38614;43.472;23.936;2023-01-19T01:56:19;98996.13;;;9.22;100.00
41830;BME280;38614;43.472;23.936;2023-01-19T01:59:12;98971.94;;;9.05;100.00
41830;BME280;38614;43.472;23.936;2023-01-19T02:02:08;98961.25;;;8.66;100.00
41830;BME280;38614;43.472;23.936;2023-01-19T02:05:36;98990.81;;;8.73;100.00
41830;BME280;38614;43.472;23.936;2023-01-19T02:08:36;98968.41;;;8.41;100.00
41830;BME280;38614;43.472;23.936;2023-01-19T02:11:46;98988.41;;;8.68;100.00
41830;BME280;38614;43.472;23.936;2023-01-19T02:14:55;98983.28;;;8.66;100.00
41830;BME280;38614;43.472;23.936;2023-01-19T02:17:51;98996.16;;;8.59;100.00
41830;BME280;38614;43.472;23.936;2023-01-19T02:20:42;98995.66;;;8.49;100.00
41830;BME280;38614;43.472;23.936;2023-01-19T02:23:57;98981.84;;;8.19;100.00
41830;BME280;38614;43.472;23.936;2023-01-19T02:26:49;98994.91;;;8.26;100.00
41830;BME280;38614;43.472;23.936;2023-01-19T02:29:38;98987.25;;;8.12;100.00
41830;BME280;38614;43.472;23.936;2023-01-19T02:32:26;99002.53;;;8.10;100.00
41830;BME280;38614;43.472;23.936;2023-01-19T02:35:14;98991.31;;;7.95;100.00
41830;BME280;38614;43.472;23.936;2023-01-19T02:38:02;98991.97;;;7.89;100.00
41830;BME280;38614;43.472;23.936;2023-01-19T02:40:53;98987.44;;;8.00;100.00
41830;BME280;38614;43.472;23.936;2023-01-19T02:43:42;98978.88;;;8.05;100.00
41830;BME280;38614;43.472;23.936;2023-01-19T02:46:31;98969.44;;;8.06;100.00
41830;BME280;38614;43.472;23.936;2023-01-19T02:49:19;98992.84;;;8.19;100.00
41830;BME280;38614;43.472;23.936;2023-01-19T02:52:14;98991.31;;;8.48;100.00
41830;BME280;38614;43.472;23.936;2023-01-19T02:55:16;99015.06;;;8.60;100.00
41830;BME280;38614;43.472;23.936;2023-01-19T02:58:44;99002.03;;;8.87;100.00
41830;BME280;38614;43.472;23.936;2023-01-19T03:08:31;99007.78;;;8.75;100.00
41830;BME280;38614;43.472;23.936;2023-01-19T03:11:28;98997.38;;;8.61;100.00
41830;BME280;38614;43.472;23.936;2023-01-19T03:14:22;98983.81;;;8.75;100.00
41830;BME280;38614;43.472;23.936;2023-01-19T03:17:12;98982.06;;;8.64;100.00
41830;BME280;38614;43.472;23.936;2023-01-19T03:20:03;98963.44;;;8.27;100.00
41830;BME280;38614;43.472;23.936;2023-01-19T03:22:56;98980.75;;;8.27;100.00
41830;BME280;38614;43.472;23.936;2023-01-19T03:25:48;98988.97;;;8.24;100.00
41830;BME280;38614;43.472;23.936;2023-01-19T03:28:39;98990.25;;;8.04;100.00
41830;BME280;38614;43.472;23.936;2023-01-19T03:31:31;98984.09;;;7.87;100.00
41830;BME280;38614;43.472;23.936;2023-01-19T03:34:20;98999.81;;;7.87;100.00
41830;BME280;38614;43.472;23.936;2023-01-19T03:37:12;98990.72;;;7.83;100.00
41830;BME280;38614;43.472;23.936;2023-01-19T03:40:00;98979.25;;;7.54;100.00
41830;BME280;38614;43.472;23.936;2023-01-19T03:42:49;98976.06;;;7.52;100.00
41830;BME280;38614;43.472;23.936;2023-01-19T03:45:38;98982.41;;;7.56;100.00
41830;BME280;38614;43.472;23.936;2023-01-19T03:48:26;98970.44;;;7.68;100.00
41830;BME280;38614;43.472;23.936;2023-01-19T03:51:14;98970.75;;;7.89;100.00
41830;BME280;38614;43.472;23.936;2023-01-19T03:54:04;98962.13;;;7.91;100.00
41830;BME280;38614;43.472;23.936;2023-01-19T03:56:51;98977.19;;;7.97;100.00
41830;BME280;38614;43.472;23.936;2023-01-19T03:59:39;98969.41;;;8.03;100.00
41830;BME280;38614;43.472;23.936;2023-01-19T04:02:27;98967.50;;;8.07;100.00
41830;BME280;38614;43.472;23.936;2023-01-19T04:05:14;98972.47;;;7.97;100.00
41830;BME280;38614;43.472;23.936;2023-01-19T04:08:02;98979.50;;;8.21;100.00
41830;BME280;38614;43.472;23.936;2023-01-19T04:10:50;98975.44;;;8.68;100.00
41830;BME280;38614;43.472;23.936;2023-01-19T04:13:37;98974.97;;;9.33;100.00
41830;BME280;38614;43.472;23.936;2023-01-19T04:16:25;98973.31;;;9.25;100.00
41830;BME280;38614;43.472;23.936;2023-01-19T04:19:13;98962.56;;;9.54;100.00
41830;BME280;38614;43.472;23.936;2023-01-19T04:22:01;98978.53;;;11.27;100.00
41830;BME280;38614;43.472;23.936;2023-01-19T04:24:49;98982.44;;;11.16;100.00
41830;BME280;38614;43.472;23.936;2023-01-19T04:27:37;98999.81;;;11.12;100.00
41830;BME280;38614;43.472;23.936;2023-01-19T04:30:25;99007.00;;;11.49;100.00
41830;BME280;38614;43.472;23.936;2023-01-19T04:33:14;99003.47;;;11.56;100.00
41830;BME280;38614;43.472;23.936;2023-01-19T04:36:01;99008.47;;;11.00;100.00
41830;BME280;38614;43.472;23.936;2023-01-19T04:38:50;98995.66;;;10.60;100.00
41830;BME280;38614;43.472;23.936;2023-01-19T04:41:38;98999.69;;;10.77;100.00
41830;BME280;38614;43.472;23.936;2023-01-19T04:44:26;98987.03;;;10.76;100.00
41830;BME280;38614;43.472;23.936;2023-01-19T04:47:14;99014.66;;;10.72;100.00
41830;BME280;38614;43.472;23.936;2023-01-19T04:50:02;99012.47;;;11.24;100.00
41830;BME280;38614;43.472;23.936;2023-01-19T04:52:52;99026.34;;;11.35;100.00
41830;BME280;38614;43.472;23.936;2023-01-19T04:55:40;99034.25;;;11.36;100.00
41830;BME280;38614;43.472;23.936;2023-01-19T04:58:28;99030.69;;;11.29;100.00
41830;BME280;38614;43.472;23.936;2023-01-19T05:01:16;99031.91;;;11.53;100.00
41830;BME280;38614;43.472;23.936;2023-01-19T05:04:03;99041.09;;;12.39;100.00
41830;BME280;38614;43.472;23.936;2023-01-19T05:06:53;99031.16;;;12.45;100.00
41830;BME280;38614;43.472;23.936;2023-01-19T05:09:40;99050.19;;;12.18;100.00
41830;BME280;38614;43.472;23.936;2023-01-19T05:12:28;99037.53;;;12.06;100.00
41830;BME280;38614;43.472;23.936;2023-01-19T05:15:16;99045.06;;;11.95;100.00
41830;BME280;38614;43.472;23.936;2023-01-19T05:18:04;99046.94;;;11.62;100.00
41830;BME280;38614;43.472;23.936;2023-01-19T05:20:54;99024.72;;;11.20;100.00
41830;BME280;38614;43.472;23.936;2023-01-19T05:23:42;99038.22;;;11.35;100.00
41830;BME280;38614;43.472;23.936;2023-01-19T05:26:30;99031.88;;;11.42;100.00
41830;BME280;38614;43.472;23.936;2023-01-19T05:29:17;99027.16;;;12.64;100.00
41830;BME280;38614;43.472;23.936;2023-01-19T05:32:05;99026.28;;;12.95;100.00
41830;BME280;38614;43.472;23.936;2023-01-19T05:34:53;99003.31;;;12.95;100.00
41830;BME280;38614;43.472;23.936;2023-01-19T05:37:40;99018.88;;;12.60;100.00
41830;BME280;38614;43.472;23.936;2023-01-19T05:40:28;99030.75;;;12.61;100.00
41830;BME280;38614;43.472;23.936;2023-01-19T05:43:16;99042.66;;;12.36;100.00
41830;BME280;38614;43.472;23.936;2023-01-19T05:46:04;99013.78;;;12.09;100.00
41830;BME280;38614;43.472;23.936;2023-01-19T05:48:51;99028.00;;;11.79;100.00
41830;BME280;38614;43.472;23.936;2023-01-19T05:51:39;99041.84;;;11.64;100.00
41830;BME280;38614;43.472;23.936;2023-01-19T05:54:31;99035.91;;;11.69;100.00
41830;BME280;38614;43.472;23.936;2023-01-19T05:57:20;99025.56;;;11.27;100.00
41830;BME280;38614;43.472;23.936;2023-01-19T06:00:09;99018.34;;;11.01;100.00
41830;BME280;38614;43.472;23.936;2023-01-19T06:03:01;99021.91;;;10.98;100.00
41830;BME280;38614;43.472;23.936;2023-01-19T06:05:50;99028.88;;;10.71;100.00
41830;BME280;38614;43.472;23.936;2023-01-19T06:08:43;99030.47;;;10.72;100.00
41830;BME280;38614;43.472;23.936;2023-01-19T06:11:31;99011.78;;;11.66;100.00
41830;BME280;38614;43.472;23.936;2023-01-19T06:14:27;99018.53;;;11.90;100.00
41830;BME280;38614;43.472;23.936;2023-01-19T06:17:16;99033.53;;;11.75;100.00
41830;BME280;38614;43.472;23.936;2023-01-19T06:20:05;99045.41;;;11.79;100.00
41830;BME280;38614;43.472;23.936;2023-01-19T06:22:56;99033.53;;;11.79;100.00
41830;BME280;38614;43.472;23.936;2023-01-19T06:25:44;99040.25;;;11.63;100.00
41830;BME280;38614;43.472;23.936;2023-01-19T06:28:31;99058.75;;;11.38;100.00
41830;BME280;38614;43.472;23.936;2023-01-19T06:31:19;99035.72;;;10.98;100.00
41830;BME280;38614;43.472;23.936;2023-01-19T06:34:08;99038.03;;;10.89;100.00
41830;BME280;38614;43.472;23.936;2023-01-19T06:36:57;99058.16;;;10.82;100.00
41830;BME280;38614;43.472;23.936;2023-01-19T06:39:44;99060.47;;;10.73;100.00
41830;BME280;38614;43.472;23.936;2023-01-19T06:42:37;99083.38;;;10.77;100.00
41830;BME280;38614;43.472;23.936;2023-01-19T06:45:26;99085.00;;;10.82;100.00
41830;BME280;38614;43.472;23.936;2023-01-19T06:48:14;99078.25;;;10.79;100.00
41830;BME280;38614;43.472;23.936;2023-01-19T06:51:02;99082.66;;;10.91;100.00
41830;BME280;38614;43.472;23.936;2023-01-19T06:53:49;99087.06;;;11.06;100.00
41830;BME280;38614;43.472;23.936;2023-01-19T06:56:37;99084.28;;;10.99;100.00
41830;BME280;38614;43.472;23.936;2023-01-19T06:59:25;99072.06;;;11.00;100.00
41830;BME280;38614;43.472;23.936;2023-01-19T07:02:13;99076.88;;;11.18;100.00
41830;BME280;38614;43.472;23.936;2023-01-19T07:05:14;99076.47;;;11.19;100.00
41830;BME280;38614;43.472;23.936;2023-01-19T07:08:02;99078.88;;;11.31;100.00
41830;BME280;38614;43.472;23.936;2023-01-19T07:10:50;99068.22;;;11.26;100.00
41830;BME280;38614;43.472;23.936;2023-01-19T07:13:58;99083.66;;;11.38;100.00
41830;BME280;38614;43.472;23.936;2023-01-19T07:16:47;99071.81;;;11.41;100.00
41830;BME280;38614;43.472;23.936;2023-01-19T07:19:35;99086.44;;;11.41;100.00
41830;BME280;38614;43.472;23.936;2023-01-19T07:22:25;99086.44;;;11.49;100.00
41830;BME280;38614;43.472;23.936;2023-01-19T07:25:13;99101.13;;;11.70;100.00
41830;BME280;38614;43.472;23.936;2023-01-19T07:28:01;99070.28;;;11.68;100.00
41830;BME280;38614;43.472;23.936;2023-01-19T07:30:53;99044.13;;;11.45;100.00
41830;BME280;38614;43.472;23.936;2023-01-19T07:33:41;99067.19;;;11.88;100.00
41830;BME280;38614;43.472;23.936;2023-01-19T07:36:29;99066.81;;;11.93;100.00
41830;BME280;38614;43.472;23.936;2023-01-19T07:39:17;99064.41;;;11.98;100.00
41830;BME280;38614;43.472;23.936;2023-01-19T07:42:05;99062.44;;;12.06;100.00
41830;BME280;38614;43.472;23.936;2023-01-19T07:44:55;99056.13;;;12.09;100.00
41830;BME280;38614;43.472;23.936;2023-01-19T07:47:43;99077.09;;;12.57;100.00
41830;BME280;38614;43.472;23.936;2023-01-19T07:50:33;99076.50;;;13.19;100.00
41830;BME280;38614;43.472;23.936;2023-01-19T07:53:20;99048.63;;;13.47;100.00
41830;BME280;38614;43.472;23.936;2023-01-19T07:56:09;99064.28;;;13.82;100.00
41830;BME280;38614;43.472;23.936;2023-01-19T07:58:57;99094.16;;;14.23;100.00
41830;BME280;38614;43.472;23.936;2023-01-19T08:01:44;99090.03;;;14.45;100.00
41830;BME280;38614;43.472;23.936;2023-01-19T08:04:34;99064.25;;;14.38;100.00
41830;BME280;38614;43.472;23.936;2023-01-19T08:07:22;99079.50;;;14.19;100.00
41830;BME280;38614;43.472;23.936;2023-01-19T08:10:11;99084.31;;;14.11;100.00
41830;BME280;38614;43.472;23.936;2023-01-19T08:12:59;99090.00;;;14.42;100.00
41830;BME280;38614;43.472;23.936;2023-01-19T08:15:49;99091.97;;;14.48;100.00
41830;BME280;38614;43.472;23.936;2023-01-19T08:18:38;99101.50;;;14.92;100.00
41830;BME280;38614;43.472;23.936;2023-01-19T08:21:28;99083.53;;;14.59;100.00
41830;BME280;38614;43.472;23.936;2023-01-19T08:24:18;99082.03;;;14.92;100.00
41830;BME280;38614;43.472;23.936;2023-01-19T08:27:07;99094.44;;;14.84;100.00
41830;BME280;38614;43.472;23.936;2023-01-19T08:29:57;99093.63;;;14.83;100.00
41830;BME280;38614;43.472;23.936;2023-01-19T08:32:45;99071.19;;;15.01;100.00
41830;BME280;38614;43.472;23.936;2023-01-19T08:35:35;99105.81;;;15.31;100.00
41830;BME280;38614;43.472;23.936;2023-01-19T08:38:25;99085.97;;;15.59;100.00
41830;BME280;38614;43.472;23.936;2023-01-19T08:41:13;99099.84;;;15.93;100.00
41830;BME280;38614;43.472;23.936;2023-01-19T08:44:02;99094.19;;;16.24;100.00
41830;BME280;38614;43.472;23.936;2023-01-19T08:46:50;99090.94;;;16.52;100.00
41830;BME280;38614;43.472;23.936;2023-01-19T08:49:38;99093.72;;;16.52;100.00
41830;BME280;38614;43.472;23.936;2023-01-19T08:52:31;99087.94;;;16.63;100.00
41830;BME280;38614;43.472;23.936;2023-01-19T08:55:19;99071.72;;;16.81;100.00
41830;BME280;38614;43.472;23.936;2023-01-19T08:58:07;99087.06;;;17.13;100.00
41830;BME280;38614;43.472;23.936;2023-01-19T09:00:58;99067.00;;;17.38;100.00
41830;BME280;38614;43.472;23.936;2023-01-19T09:03:49;99056.03;;;17.47;100.00
41830;BME280;38614;43.472;23.936;2023-01-19T09:06:38;99063.22;;;17.28;100.00
41830;BME280;38614;43.472;23.936;2023-01-19T09:09:29;99058.16;;;17.59;100.00
41830;BME280;38614;43.472;23.936;2023-01-19T09:12:16;99050.28;;;17.74;100.00
41830;BME280;38614;43.472;23.936;2023-01-19T09:15:07;99057.38;;;18.11;100.00
41830;BME280;38614;43.472;23.936;2023-01-19T09:17:57;99019.53;;;18.23;100.00
41830;BME280;38614;43.472;23.936;2023-01-19T09:20:47;99054.38;;;18.84;91.72
41830;BME280;38614;43.472;23.936;2023-01-19T09:23:35;99037.94;;;18.98;86.10
41830;BME280;38614;43.472;23.936;2023-01-19T09:26:23;99043.47;;;19.15;82.91
41830;BME280;38614;43.472;23.936;2023-01-19T09:29:10;99000.16;;;18.77;83.58
41830;BME280;38614;43.472;23.936;2023-01-19T09:31:58;99039.59;;;19.25;81.63
41830;BME280;38614;43.472;23.936;2023-01-19T09:34:46;99020.81;;;19.38;81.63
41830;BME280;38614;43.472;23.936;2023-01-19T09:37:34;99015.25;;;19.76;75.34
41830;BME280;38614;43.472;23.936;2023-01-19T09:40:24;98983.88;;;19.69;71.55
41830;BME280;38614;43.472;23.936;2023-01-19T09:49:15;99006.50;;;19.61;70.71
41830;BME280;38614;43.472;23.936;2023-01-19T09:52:03;99003.88;;;19.42;72.66
41830;BME280;38614;43.472;23.936;2023-01-19T09:54:55;99012.38;;;19.25;73.97
41830;BME280;38614;43.472;23.936;2023-01-19T09:57:44;98995.03;;;19.43;69.10
41830;BME280;38614;43.472;23.936;2023-01-19T10:00:31;98996.84;;;19.88;67.34
41830;BME280;38614;43.472;23.936;2023-01-19T10:03:19;98982.97;;;19.72;66.05
41830;BME280;38614;43.472;23.936;2023-01-19T10:06:10;98993.94;;;19.79;65.27
41830;BME280;38614;43.472;23.936;2023-01-19T10:09:12;98986.84;;;20.00;65.75
41830;BME280;38614;43.472;23.936;2023-01-19T10:12:20;98991.22;;;20.13;66.88
41830;BME280;38614;43.472;23.936;2023-01-19T10:18:27;98975.56;;;19.78;66.77
41830;BME280;38614;43.472;23.936;2023-01-19T10:24:26;99003.69;;;20.00;66.00
41830;BME280;38614;43.472;23.936;2023-01-19T10:27:17;98997.03;;;20.19;62.69
41830;BME280;38614;43.472;23.936;2023-01-19T10:30:06;98983.25;;;20.59;63.79
41830;BME280;38614;43.472;23.936;2023-01-19T10:32:55;98990.69;;;20.75;62.07
41830;BME280;38614;43.472;23.936;2023-01-19T10:35:42;98976.22;;;20.76;66.48
41830;BME280;38614;43.472;23.936;2023-01-19T10:38:32;98952.84;;;20.80;65.03
41830;BME280;38614;43.472;23.936;2023-01-19T10:41:29;98966.97;;;21.20;62.37
41830;BME280;38614;43.472;23.936;2023-01-19T10:44:28;98964.44;;;21.13;63.39
41830;BME280;38614;43.472;23.936;2023-01-19T10:47:29;98948.38;;;21.13;64.68
41830;BME280;38614;43.472;23.936;2023-01-19T10:50:30;98958.19;;;21.40;62.61
41830;BME280;38614;43.472;23.936;2023-01-19T10:53:21;98937.66;;;21.52;61.94
41830;BME280;38614;43.472;23.936;2023-01-19T10:56:35;98941.69;;;21.42;60.18
41830;BME280;38614;43.472;23.936;2023-01-19T10:59:45;98936.69;;;21.46;58.96
41830;BME280;38614;43.472;23.936;2023-01-19T11:02:34;98939.22;;;21.53;57.28
41830;BME280;38614;43.472;23.936;2023-01-19T11:05:25;98945.00;;;21.58;57.63
41830;BME280;38614;43.472;23.936;2023-01-19T11:08:29;98930.59;;;21.16;56.40
41830;BME280;38614;43.472;23.936;2023-01-19T11:11:20;98945.22;;;21.33;58.10
41830;BME280;38614;43.472;23.936;2023-01-19T11:14:13;98940.38;;;21.33;54.23
41830;BME280;38614;43.472;23.936;2023-01-19T11:17:03;98930.63;;;21.25;54.69
41830;BME280;38614;43.472;23.936;2023-01-19T11:19:54;98944.81;;;21.22;56.22
41830;BME280;38614;43.472;23.936;2023-01-19T11:22:42;98923.22;;;21.31;57.18
41830;BME280;38614;43.472;23.936;2023-01-19T11:25:32;98931.97;;;21.33;55.44
41830;BME280;38614;43.472;23.936;2023-01-19T11:28:39;98869.44;;;20.58;54.39
41830;BME280;38614;43.472;23.936;2023-01-19T11:31:33;98940.97;;;20.75;57.65
41830;BME280;38614;43.472;23.936;2023-01-19T11:40:14;98945.00;;;20.53;56.33
41830;BME280;38614;43.472;23.936;2023-01-19T11:43:17;98934.69;;;20.71;55.16
41830;BME280;38614;43.472;23.936;2023-01-19T11:46:10;98934.88;;;20.55;57.09
41830;BME280;38614;43.472;23.936;2023-01-19T11:49:11;98932.84;;;20.56;56.76
41830;BME280;38614;43.472;23.936;2023-01-19T11:52:17;98948.91;;;20.55;56.22
41830;BME280;38614;43.472;23.936;2023-01-19T11:55:21;98919.59;;;20.56;53.42
41830;BME280;38614;43.472;23.936;2023-01-19T11:58:14;98937.44;;;20.62;55.91
41830;BME280;38614;43.472;23.936;2023-01-19T12:04:15;98952.19;;;20.41;59.36
41830;BME280;38614;43.472;23.936;2023-01-19T12:07:06;98951.19;;;20.35;60.69
41830;BME280;38614;43.472;23.936;2023-01-19T12:10:13;98946.75;;;20.25;58.39
41830;BME280;38614;43.472;23.936;2023-01-19T12:13:16;98957.59;;;20.35;55.04
41830;BME280;38614;43.472;23.936;2023-01-19T12:16:06;98939.56;;;20.24;56.87
41830;BME280;38614;43.472;23.936;2023-01-19T12:19:12;98971.91;;;20.15;58.43
41830;BME280;38614;43.472;23.936;2023-01-19T12:22:03;98941.47;;;19.92;57.29
41830;BME280;38614;43.472;23.936;2023-01-19T12:25:00;98955.00;;;20.06;58.45
41830;BME280;38614;43.472;23.936;2023-01-19T12:27:52;98945.59;;;19.87;59.11
41830;BME280;38614;43.472;23.936;2023-01-19T12:30:49;98929.59;;;19.75;60.27
41830;BME280;38614;43.472;23.936;2023-01-19T12:33:41;98949.16;;;20.01;62.54
41830;BME280;38614;43.472;23.936;2023-01-19T12:39:21;98960.88;;;19.61;65.56
41830;BME280;38614;43.472;23.936;2023-01-19T12:42:12;98940.13;;;19.33;69.01
41830;BME280;38614;43.472;23.936;2023-01-19T12:45:05;98956.91;;;19.33;69.78
41830;BME280;38614;43.472;23.936;2023-01-19T12:47:55;98940.81;;;19.37;69.75
41830;BME280;38614;43.472;23.936;2023-01-19T12:50:44;98915.81;;;19.17;65.26
41830;BME280;38614;43.472;23.936;2023-01-19T12:53:32;98950.44;;;19.36;65.61
41830;BME280;38614;43.472;23.936;2023-01-19T12:56:28;98947.53;;;19.40;65.04
41830;BME280;38614;43.472;23.936;2023-01-19T12:59:23;98938.56;;;19.32;64.00
41830;BME280;38614;43.472;23.936;2023-01-19T13:05:48;98945.72;;;19.33;65.64
41830;BME280;38614;43.472;23.936;2023-01-19T13:08:55;98934.97;;;19.19;63.82
41830;BME280;38614;43.472;23.936;2023-01-19T13:15:33;98957.03;;;19.29;64.20
41830;BME280;38614;43.472;23.936;2023-01-19T13:18:27;98952.09;;;19.21;64.52
41830;BME280;38614;43.472;23.936;2023-01-19T13:21:46;98967.25;;;19.36;64.47
41830;BME280;38614;43.472;23.936;2023-01-19T13:25:05;98974.97;;;19.32;65.44
41830;BME280;38614;43.472;23.936;2023-01-19T13:27:53;98965.00;;;19.44;64.02
41830;BME280;38614;43.472;23.936;2023-01-19T13:30:56;98953.91;;;19.40;63.16
41830;BME280;38614;43.472;23.936;2023-01-19T13:33:51;98981.50;;;19.54;64.15
41830;BME280;38614;43.472;23.936;2023-01-19T13:36:43;98993.84;;;19.57;64.09
41830;BME280;38614;43.472;23.936;2023-01-19T13:39:37;98987.47;;;19.56;64.55
41830;BME280;38614;43.472;23.936;2023-01-19T13:42:39;98966.13;;;19.46;64.50
41830;BME280;38614;43.472;23.936;2023-01-19T13:45:35;98991.69;;;19.48;63.94
41830;BME280;38614;43.472;23.936;2023-01-19T13:48:24;98975.41;;;19.30;65.31
41830;BME280;38614;43.472;23.936;2023-01-19T13:51:17;98958.94;;;19.20;65.50
41830;BME280;38614;43.472;23.936;2023-01-19T13:54:14;98983.25;;;19.23;65.03
41830;BME280;38614;43.472;23.936;2023-01-19T13:57:04;98983.22;;;19.10;68.58
41830;BME280;38614;43.472;23.936;2023-01-19T14:00:04;98995.41;;;19.03;66.80
41830;BME280;38614;43.472;23.936;2023-01-19T14:03:15;99010.19;;;19.04;69.23
41830;BME280;38614;43.472;23.936;2023-01-19T14:06:04;98999.56;;;18.99;68.69
41830;BME280;38614;43.472;23.936;2023-01-19T14:09:14;99017.41;;;19.18;67.76
41830;BME280;38614;43.472;23.936;2023-01-19T14:12:13;99052.31;;;18.71;75.33
41830;BME280;38614;43.472;23.936;2023-01-19T14:15:02;99055.50;;;17.72;87.79
41830;BME280;38614;43.472;23.936;2023-01-19T14:24:18;99054.94;;;15.30;100.00
41830;BME280;38614;43.472;23.936;2023-01-19T14:30:22;99074.47;;;14.93;100.00
41830;BME280;38614;43.472;23.936;2023-01-19T14:33:49;99084.94;;;14.78;100.00
41830;BME280;38614;43.472;23.936;2023-01-19T14:36:38;99066.28;;;14.34;100.00
41830;BME280;38614;43.472;23.936;2023-01-19T14:39:33;99092.84;;;14.38;100.00
41830;BME280;38614;43.472;23.936;2023-01-19T14:42:27;99103.63;;;14.29;100.00
41830;BME280;38614;43.472;23.936;2023-01-19T14:45:18;99095.00;;;14.16;100.00
41830;BME280;38614;43.472;23.936;2023-01-19T14:48:19;99110.94;;;14.05;100.00
41830;BME280;38614;43.472;23.936;2023-01-19T14:51:15;99110.94;;;14.05;100.00
41830;BME280;38614;43.472;23.936;2023-01-19T14:54:05;99121.41;;;13.87;100.00
41830;BME280;38614;43.472;23.936;2023-01-19T14:56:53;99091.00;;;13.62;100.00
41830;BME280;38614;43.472;23.936;2023-01-19T14:59:40;99137.31;;;13.79;100.00
41830;BME280;38614;43.472;23.936;2023-01-19T15:02:28;99145.25;;;13.74;100.00
41830;BME280;38614;43.472;23.936;2023-01-19T15:05:16;99146.50;;;13.65;100.00
41830;BME280;38614;43.472;23.936;2023-01-19T15:08:40;99152.13;;;13.48;100.00
41830;BME280;38614;43.472;23.936;2023-01-19T15:11:33;99163.66;;;13.43;100.00
41830;BME280;38614;43.472;23.936;2023-01-19T15:14:21;99175.53;;;13.39;100.00
41830;BME280;38614;43.472;23.936;2023-01-19T15:17:19;99151.78;;;13.17;100.00
41830;BME280;38614;43.472;23.936;2023-01-19T15:20:19;99190.66;;;13.21;100.00
41830;BME280;38614;43.472;23.936;2023-01-19T15:23:09;99181.16;;;13.07;100.00
41830;BME280;38614;43.472;23.936;2023-01-19T15:26:02;99163.34;;;12.98;100.00
41830;BME280;38614;43.472;23.936;2023-01-19T15:28:51;99208.47;;;13.09;100.00
41830;BME280;38614;43.472;23.936;2023-01-19T15:31:40;99189.09;;;12.91;100.00
41830;BME280;38614;43.472;23.936;2023-01-19T15:34:30;99208.91;;;12.90;100.00
41830;BME280;38614;43.472;23.936;2023-01-19T15:37:18;99239.78;;;13.02;100.00
41830;BME280;38614;43.472;23.936;2023-01-19T15:40:06;99252.06;;;13.01;100.00
41830;BME280;38614;43.472;23.936;2023-01-19T15:42:54;99247.72;;;12.90;100.00